Time;durP1;ratioP1;P1;durP2;ratioP2;P2;SDS_P1;SDS_P2;PMS_P1;PMS_P2;Temp;Humidity;BMP_temperature;BMP_pressure;BME280_temperature;BME280_humidity;BME280_pressure;Samples;Min_cycle;Max_cycle;Signal;HPM_P1;HPM_P2
2023/10/13 00:00:42;;;;;;;5.88;4.00;;;;;;;;;;5034995;28;20660;-43
2023/10/13 00:03:31;;;;;;;7.95;4.80;;;;;;;;;;5035458;28;20212;-43
2023/10/13 00:06:02;;;;;;;8.95;5.78;;;;;;;;;;5035335;28;20784;-43
2023/10/13 00:08:30;;;;;;;13.63;6.55;;;;;;;;;;5034964;28;20247;-43
2023/10/13 00:11:00;;;;;;;42.20;12.18;;;;;;;;;;5035041;28;20205;-44
2023/10/13 00:13:28;;;;;;;14.63;5.82;;;;;;;;;;5035353;28;20577;-44
2023/10/13 00:15:58;;;;;;;6.22;3.95;;;;;;;;;;5035189;28;20207;-43
2023/10/13 00:18:34;;;;;;;6.20;3.55;;;;;;;;;;5034991;28;20201;-44
2023/10/13 00:21:15;;;;;;;7.80;4.10;;;;;;;;;;5017987;28;20208;-45
2023/10/13 00:23:53;;;;;;;10.95;5.25;;;;;;;;;;5034888;28;20200;-44
2023/10/13 00:26:27;;;;;;;5.50;3.72;;;;;;;;;;5034425;28;20683;-44
2023/10/13 00:29:01;;;;;;;6.10;3.25;;;;;;;;;;5034285;28;20255;-44
2023/10/13 00:31:36;;;;;;;6.97;4.35;;;;;;;;;;5034634;28;20211;-45
2023/10/13 00:34:11;;;;;;;8.45;5.05;;;;;;;;;;5034621;28;20200;-44
2023/10/13 00:36:48;;;;;;;10.43;6.13;;;;;;;;;;5016933;28;20208;-45
2023/10/13 00:39:18;;;;;;;12.93;6.38;;;;;;;;;;5034448;28;20228;-44
2023/10/13 00:41:52;;;;;;;10.20;6.28;;;;;;;;;;5034415;28;20200;-44
2023/10/13 00:44:28;;;;;;;8.50;5.07;;;;;;;;;;5016782;28;20558;-46
2023/10/13 00:46:56;;;;;;;9.25;5.25;;;;;;;;;;5034534;28;20688;-44
2023/10/13 00:49:24;;;;;;;7.60;5.20;;;;;;;;;;5034367;28;20207;-45
2023/10/13 00:51:52;;;;;;;9.13;5.35;;;;;;;;;;5016775;28;20691;-45
2023/10/13 00:54:26;;;;;;;9.52;5.03;;;;;;;;;;5034211;28;20200;-45
2023/10/13 00:57:04;;;;;;;9.70;5.00;;;;;;;;;;5034197;28;20205;-46
2023/10/13 00:59:36;;;;;;;8.02;4.88;;;;;;;;;;5016306;28;20220;-44
2023/10/13 01:02:26;;;;;;;10.80;5.15;;;;;;;;;;5016405;28;20197;-46
2023/10/13 01:04:51;;;;;;;7.15;5.00;;;;;;;;;;5016631;28;20575;-45
2023/10/13 01:07:22;;;;;;;7.18;4.43;;;;;;;;;;5016315;28;20770;-45
2023/10/13 01:09:50;;;;;;;9.00;4.30;;;;;;;;;;5016277;28;20223;-46
2023/10/13 01:12:17;;;;;;;10.23;4.60;;;;;;;;;;5034002;28;20209;-46
2023/10/13 01:14:45;;;;;;;8.45;4.47;;;;;;;;;;5033689;28;20201;-45
2023/10/13 01:17:13;;;;;;;12.68;4.43;;;;;;;;;;5033692;28;20212;-48
2023/10/13 01:19:45;;;;;;;6.93;4.03;;;;;;;;;;5016475;28;20292;-48
2023/10/13 01:22:12;;;;;;;9.23;4.53;;;;;;;;;;5016339;28;20197;-44
2023/10/13 01:24:40;;;;;;;12.15;4.45;;;;;;;;;;5033574;28;20209;-42
2023/10/13 01:27:17;;;;;;;8.90;4.70;;;;;;;;;;5016054;28;20232;-43
2023/10/13 01:29:50;;;;;;;8.80;3.85;;;;;;;;;;5033892;28;20200;-43
2023/10/13 01:32:21;;;;;;;8.00;4.28;;;;;;;;;;5015890;28;20704;-45
2023/10/13 01:34:49;;;;;;;8.40;4.55;;;;;;;;;;5033470;28;20200;-44
2023/10/13 01:37:19;;;;;;;7.50;4.35;;;;;;;;;;5016181;28;20204;-45
2023/10/13 01:39:47;;;;;;;8.05;4.97;;;;;;;;;;5033193;28;20583;-45
2023/10/13 01:42:24;;;;;;;7.90;4.75;;;;;;;;;;5033644;28;20204;-44
2023/10/13 01:44:51;;;;;;;8.80;4.10;;;;;;;;;;5015932;28;20285;-45
2023/10/13 01:47:22;;;;;;;7.00;4.18;;;;;;;;;;5033056;28;20708;-44
2023/10/13 01:49:50;;;;;;;5.55;3.28;;;;;;;;;;5033602;28;20201;-45
2023/10/13 01:52:18;;;;;;;6.50;3.50;;;;;;;;;;5033191;28;20673;-46
2023/10/13 01:54:48;;;;;;;11.32;4.82;;;;;;;;;;5033471;28;20211;-47
2023/10/13 01:57:17;;;;;;;8.45;4.22;;;;;;;;;;5016073;28;20544;-45
2023/10/13 01:59:47;;;;;;;8.13;3.67;;;;;;;;;;5015937;28;20236;-46
2023/10/13 02:02:26;;;;;;;5.82;3.45;;;;;;;;;;5016045;28;20178;-44
2023/10/13 02:04:57;;;;;;;6.43;3.42;;;;;;;;;;5015290;28;20708;-45
2023/10/13 02:07:29;;;;;;;8.43;5.05;;;;;;;;;;5033097;28;20224;-46
2023/10/13 02:09:58;;;;;;;5.75;3.38;;;;;;;;;;5033481;28;20188;-46
2023/10/13 02:12:36;;;;;;;4.00;2.60;;;;;;;;;;5032976;28;20677;-44
2023/10/13 02:15:04;;;;;;;3.53;2.30;;;;;;;;;;5016004;28;20541;-46
2023/10/13 02:17:41;;;;;;;3.75;2.10;;;;;;;;;;5015741;28;20209;-45
2023/10/13 02:20:14;;;;;;;2.60;1.85;;;;;;;;;;5033051;28;20184;-45
2023/10/13 02:22:51;;;;;;;2.50;1.98;;;;;;;;;;5033277;28;20192;-45
2023/10/13 02:28:13;;;;;;;10.95;4.82;;;;;;;;;;5015489;28;20189;-44
2023/10/13 02:30:44;;;;;;;8.23;3.65;;;;;;;;;;5032950;28;20616;-44
2023/10/13 02:33:12;;;;;;;5.10;3.10;;;;;;;;;;5015459;28;20197;-44
2023/10/13 02:35:50;;;;;;;4.68;2.58;;;;;;;;;;5015340;28;20205;-45
2023/10/13 02:38:28;;;;;;;4.60;2.63;;;;;;;;;;5033016;28;20215;-44
2023/10/13 02:40:56;;;;;;;5.53;3.08;;;;;;;;;;5015649;28;20185;-45
2023/10/13 02:43:23;;;;;;;6.38;3.50;;;;;;;;;;5032879;28;20216;-43
2023/10/13 02:46:01;;;;;;;6.63;3.63;;;;;;;;;;5015128;28;20224;-45
2023/10/13 02:48:42;;;;;;;6.38;3.30;;;;;;;;;;5015437;28;20189;-46
2023/10/13 02:51:18;;;;;;;5.05;3.08;;;;;;;;;;5017352;28;20215;-45
2023/10/13 02:53:49;;;;;;;6.53;3.53;;;;;;;;;;5036738;28;20216;-46
2023/10/13 02:56:20;;;;;;;2.92;2.20;;;;;;;;;;5036635;28;20199;-41
2023/10/13 02:58:53;;;;;;;4.55;2.95;;;;;;;;;;5003399;28;20204;-45
2023/10/13 03:01:21;;;;;;;3.97;2.33;;;;;;;;;;5018604;28;20193;-46
2023/10/13 03:03:54;;;;;;;8.45;2.75;;;;;;;;;;5018437;28;20208;-44
2023/10/13 03:06:47;;;;;;;8.05;4.05;;;;;;;;;;5036016;28;20220;-44
2023/10/13 03:09:14;;;;;;;10.45;5.35;;;;;;;;;;5036317;28;20255;-46
2023/10/13 03:11:48;;;;;;;43.13;17.45;;;;;;;;;;5019122;28;20276;-45
2023/10/13 03:14:24;;;;;;;18.15;10.35;;;;;;;;;;5036327;28;20188;-44
2023/10/13 03:17:03;;;;;;;10.90;5.40;;;;;;;;;;5018622;28;20279;-44
2023/10/13 03:19:34;;;;;;;10.52;4.85;;;;;;;;;;5018373;28;20196;-46
2023/10/13 03:22:15;;;;;;;37.83;20.20;;;;;;;;;;5035867;28;20220;-46
2023/10/13 03:24:47;;;;;;;32.10;16.70;;;;;;;;;;5035778;28;20722;-45
2023/10/13 03:27:22;;;;;;;14.52;7.78;;;;;;;;;;5019042;28;20209;-45
2023/10/13 03:29:56;;;;;;;7.68;4.75;;;;;;;;;;5018670;28;20209;-45
2023/10/13 03:32:26;;;;;;;9.32;4.53;;;;;;;;;;5036060;28;20181;-44
2023/10/13 03:37:40;;;;;;;10.40;4.93;;;;;;;;;;5035717;28;20204;-45
2023/10/13 03:40:56;;;;;;;12.45;6.38;;;;;;;;;;5035851;28;20185;-45
2023/10/13 03:43:04;;;;;;;9.23;5.05;;;;;;;;;;5022167;28;20291;-45
2023/10/13 03:45:41;;;;;;;8.10;4.28;;;;;;;;;;5035211;28;20687;-46
2023/10/13 03:48:11;;;;;;;4.15;2.70;;;;;;;;;;5034503;28;20246;-44
2023/10/13 03:50:48;;;;;;;9.98;3.58;;;;;;;;;;5033826;28;20213;-44
2023/10/13 03:53:15;;;;;;;8.18;3.00;;;;;;;;;;5034963;28;20665;-45
2023/10/13 03:55:47;;;;;;;6.38;3.75;;;;;;;;;;5034979;28;20661;-45
2023/10/13 03:58:17;;;;;;;6.72;3.80;;;;;;;;;;5035252;28;20662;-43
2023/10/13 04:00:44;;;;;;;4.35;3.05;;;;;;;;;;5034968;28;20212;-45
2023/10/13 04:03:16;;;;;;;7.72;2.60;;;;;;;;;;5035060;28;20625;-45
2023/10/13 04:05:46;;;;;;;4.57;2.80;;;;;;;;;;5035554;28;20605;-45
2023/10/13 04:32:33;;;;;;;17.20;4.70;;;;;;;;;;5034138;28;20201;-43
2023/10/13 04:40:24;;;;;;;9.70;4.65;;;;;;;;;;4953075;29;20223;-43
2023/10/13 04:50:50;;;;;;;11.13;4.07;;;;;;;;;;4960987;28;20235;-45
2023/10/13 04:53:30;;;;;;;8.52;3.78;;;;;;;;;;4959021;28;20257;-45
2023/10/13 06:28:42;;;;;;;14.70;5.20;;;;;;;;;;4980378;28;20261;-41
2023/10/13 06:31:21;;;;;;;10.93;5.47;;;;;;;;;;4996460;28;21049;-42
2023/10/13 06:33:49;;;;;;;9.65;4.78;;;;;;;;;;4996267;28;20230;-43
2023/10/13 06:36:17;;;;;;;9.95;5.40;;;;;;;;;;4995905;28;20233;-43
2023/10/13 06:38:52;;;;;;;13.07;6.20;;;;;;;;;;4996271;28;20256;-43
2023/10/13 06:41:20;;;;;;;12.77;5.95;;;;;;;;;;4996444;28;20240;-44
2023/10/13 06:43:59;;;;;;;15.07;5.85;;;;;;;;;;4996065;28;20230;-43
2023/10/13 06:46:28;;;;;;;19.30;6.90;;;;;;;;;;4996105;28;20225;-42
2023/10/13 06:48:59;;;;;;;10.70;6.22;;;;;;;;;;4996095;28;20328;-44
2023/10/13 06:51:31;;;;;;;14.52;6.60;;;;;;;;;;4995257;28;20229;-42
2023/10/13 06:53:58;;;;;;;14.50;6.03;;;;;;;;;;4996533;28;20233;-44
2023/10/13 06:56:29;;;;;;;12.57;6.85;;;;;;;;;;4995869;28;20280;-43
2023/10/13 06:58:59;;;;;;;10.98;6.35;;;;;;;;;;4996316;28;20232;-45
2023/10/13 07:01:27;;;;;;;12.77;6.72;;;;;;;;;;4995810;28;20222;-43
2023/10/13 07:03:55;;;;;;;11.88;6.20;;;;;;;;;;4995865;28;20276;-44
2023/10/13 07:06:23;;;;;;;12.45;6.50;;;;;;;;;;4995330;28;20237;-41
2023/10/13 07:08:52;;;;;;;12.25;6.15;;;;;;;;;;5007928;28;20586;-43
2023/10/13 07:11:33;;;;;;;10.55;6.13;;;;;;;;;;5015351;28;20232;-42
2023/10/13 07:14:10;;;;;;;10.85;6.43;;;;;;;;;;5015742;28;20231;-43
2023/10/13 07:17:02;;;;;;;10.38;5.93;;;;;;;;;;5013826;28;20225;-42
2023/10/13 07:19:29;;;;;;;11.55;6.28;;;;;;;;;;5015391;28;20221;-41
2023/10/13 07:22:20;;;;;;;14.15;6.40;;;;;;;;;;5014514;28;20221;-43
2023/10/13 07:24:49;;;;;;;9.77;5.88;;;;;;;;;;5014068;28;20221;-43
2023/10/13 07:27:23;;;;;;;12.25;5.82;;;;;;;;;;5014663;28;20749;-42
2023/10/13 07:29:56;;;;;;;11.85;5.72;;;;;;;;;;5015040;28;20229;-42
2023/10/13 07:32:27;;;;;;;11.43;5.50;;;;;;;;;;5014311;28;20710;-44
2023/10/13 07:34:58;;;;;;;11.23;5.65;;;;;;;;;;5014736;28;20206;-43
2023/10/13 07:37:28;;;;;;;12.38;5.72;;;;;;;;;;5002910;28;20210;-42
2023/10/13 07:39:57;;;;;;;8.35;5.53;;;;;;;;;;5015368;28;20200;-42
2023/10/13 07:42:31;;;;;;;10.50;5.05;;;;;;;;;;5014990;28;20206;-45
2023/10/13 07:44:59;;;;;;;14.15;5.10;;;;;;;;;;5015481;28;20674;-43
2023/10/13 07:47:27;;;;;;;8.50;5.32;;;;;;;;;;5015469;28;20225;-43
2023/10/13 07:49:56;;;;;;;9.68;5.90;;;;;;;;;;5015480;28;20207;-43
2023/10/13 07:52:26;;;;;;;16.95;7.80;;;;;;;;;;5015617;28;20213;-44
2023/10/13 07:55:10;;;;;;;17.70;8.45;;;;;;;;;;5015264;28;20611;-43
2023/10/13 07:58:07;;;;;;;19.00;9.23;;;;;;;;;;5015252;28;20221;-47
2023/10/13 08:08:35;;;;;;;22.52;10.55;;;;;;;;;;5014061;28;20233;-42
2023/10/13 08:11:11;;;;;;;16.67;8.55;;;;;;;;;;5014373;28;20263;-44
2023/10/13 08:13:46;;;;;;;15.38;7.93;;;;;;;;;;5014157;28;20598;-45
2023/10/13 08:16:46;;;;;;;17.05;8.55;;;;;;;;;;5015145;28;20205;-44
2023/10/13 08:19:44;;;;;;;13.77;7.13;;;;;;;;;;5014983;28;20263;-46
2023/10/13 08:38:14;;;;;;;7.22;3.97;;;;;;;;;;5014646;28;20232;-46
2023/10/13 08:40:43;;;;;;;6.60;3.60;;;;;;;;;;5004643;28;20232;-45
2023/10/13 08:43:11;;;;;;;4.28;3.67;;;;;;;;;;5013737;28;20201;-45
2023/10/13 08:48:12;;;;;;;8.02;3.72;;;;;;;;;;5012722;28;20769;-45
2023/10/13 09:06:03;;;;;;;11.05;5.28;;;;;;;;;;5049693;27;20566;-44
2023/10/13 09:08:44;;;;;;;8.30;4.88;;;;;;;;;;5041469;28;20223;-43
2023/10/13 09:11:12;;;;;;;10.63;4.05;;;;;;;;;;5048848;28;20226;-40
2023/10/13 09:13:46;;;;;;;11.13;4.38;;;;;;;;;;5049582;28;20226;-45
2023/10/13 09:16:51;;;;;;;8.95;3.90;;;;;;;;;;5048989;28;20216;-44
2023/10/13 09:19:11;;;;;;;11.27;4.38;;;;;;;;;;5036798;28;20227;-43
2023/10/13 09:26:53;;;;;;;6.45;3.85;;;;;;;;;;5029472;28;20225;-44
2023/10/13 09:29:21;;;;;;;7.75;3.80;;;;;;;;;;5029370;28;20217;-44
2023/10/13 09:32:00;;;;;;;6.75;4.07;;;;;;;;;;5034608;28;20279;-45
2023/10/13 09:34:33;;;;;;;10.00;4.15;;;;;;;;;;5048753;28;20343;-45
2023/10/13 09:37:06;;;;;;;9.25;4.30;;;;;;;;;;5049137;28;20310;-43
2023/10/13 09:39:52;;;;;;;15.90;4.25;;;;;;;;;;5046059;28;20254;-43
2023/10/13 09:42:23;;;;;;;12.65;3.88;;;;;;;;;;5048656;28;20234;-45
2023/10/13 09:44:51;;;;;;;9.85;4.03;;;;;;;;;;5049295;28;20220;-45
2023/10/13 09:47:29;;;;;;;9.27;4.55;;;;;;;;;;5048479;28;20211;-45
2023/10/13 09:50:05;;;;;;;11.80;5.35;;;;;;;;;;5049033;28;20228;-46
2023/10/13 09:52:33;;;;;;;7.93;4.45;;;;;;;;;;5048081;28;20223;-45
2023/10/13 09:55:18;;;;;;;11.35;4.82;;;;;;;;;;5045200;28;20289;-43
2023/10/13 09:58:10;;;;;;;14.80;4.38;;;;;;;;;;5039543;28;20212;-43
2023/10/13 10:00:57;;;;;;;8.30;4.18;;;;;;;;;;5028119;28;20221;-44
2023/10/13 10:04:07;;;;;;;13.15;4.60;;;;;;;;;;5041743;28;20240;-43
2023/10/13 10:06:28;;;;;;;11.98;4.93;;;;;;;;;;5017020;28;20229;-44
2023/10/13 10:09:15;;;;;;;15.43;5.38;;;;;;;;;;5014622;28;20278;-46
2023/10/13 10:12:18;;;;;;;14.98;4.95;;;;;;;;;;5014842;28;20255;-44
2023/10/13 10:15:30;;;;;;;13.20;5.00;;;;;;;;;;5015195;28;20240;-45
2023/10/13 10:17:58;;;;;;;12.27;5.13;;;;;;;;;;5018247;28;20229;-44
2023/10/13 10:21:15;;;;;;;16.52;5.63;;;;;;;;;;5029566;28;20220;-44
2023/10/13 10:23:28;;;;;;;14.10;5.38;;;;;;;;;;5026458;28;20228;-45
2023/10/13 10:26:08;;;;;;;15.40;5.53;;;;;;;;;;5042197;28;20223;-45
2023/10/13 10:28:41;;;;;;;16.88;5.95;;;;;;;;;;5054848;28;20723;-45
2023/10/13 10:31:14;;;;;;;17.40;6.18;;;;;;;;;;5054901;28;20234;-44
2023/10/13 10:33:41;;;;;;;14.68;6.32;;;;;;;;;;5055528;28;20204;-44
2023/10/13 10:36:14;;;;;;;22.65;7.03;;;;;;;;;;5055373;28;20624;-47
2023/10/13 10:38:58;;;;;;;22.02;7.32;;;;;;;;;;5034289;28;20564;-43
2023/10/13 10:41:38;;;;;;;28.10;7.35;;;;;;;;;;5021852;28;20205;-45
2023/10/13 10:44:16;;;;;;;25.38;7.88;;;;;;;;;;5035483;28;20189;-46
2023/10/13 10:46:56;;;;;;;30.00;9.00;;;;;;;;;;5022133;28;20208;-45
2023/10/13 10:49:27;;;;;;;23.40;8.93;;;;;;;;;;5015977;28;20206;-45
2023/10/13 10:52:04;;;;;;;28.40;9.30;;;;;;;;;;5016704;28;20205;-45
2023/10/13 10:54:34;;;;;;;32.25;9.60;;;;;;;;;;5018540;28;20669;-45
2023/10/13 10:57:19;;;;;;;28.02;9.73;;;;;;;;;;5013993;28;20213;-45
2023/10/13 10:59:47;;;;;;;30.75;9.45;;;;;;;;;;5013377;28;20216;-45
2023/10/13 11:02:22;;;;;;;28.20;9.10;;;;;;;;;;5014705;28;20210;-46
2023/10/13 11:04:53;;;;;;;29.15;9.48;;;;;;;;;;5014154;28;20240;-45
2023/10/13 11:07:24;;;;;;;23.20;9.30;;;;;;;;;;5015476;28;20209;-46
2023/10/13 11:10:06;;;;;;;23.52;10.50;;;;;;;;;;5015285;28;20658;-45
2023/10/13 11:12:34;;;;;;;26.80;9.63;;;;;;;;;;5019977;28;20250;-46
2023/10/13 11:15:33;;;;;;;25.52;9.98;;;;;;;;;;5018078;28;20309;-43
2023/10/13 11:18:05;;;;;;;38.40;11.50;;;;;;;;;;5012204;28;20212;-45
2023/10/13 11:20:34;;;;;;;32.72;10.63;;;;;;;;;;5013394;28;20205;-44
2023/10/13 11:23:04;;;;;;;25.48;11.18;;;;;;;;;;5013040;28;20231;-46
2023/10/13 11:25:35;;;;;;;25.98;10.00;;;;;;;;;;5011899;28;20208;-46
2023/10/13 11:28:28;;;;;;;31.20;10.63;;;;;;;;;;5013334;28;20197;-45
2023/10/13 11:30:58;;;;;;;27.70;11.50;;;;;;;;;;5018840;28;20256;-45
2023/10/13 11:33:31;;;;;;;23.73;10.35;;;;;;;;;;5025462;28;20578;-44
2023/10/13 11:36:03;;;;;;;24.23;10.02;;;;;;;;;;5024558;28;20229;-44
2023/10/13 11:38:57;;;;;;;27.83;11.82;;;;;;;;;;5028321;28;20205;-44
2023/10/13 11:41:22;;;;;;;23.52;10.20;;;;;;;;;;5031639;28;20200;-46
2023/10/13 11:51:45;;;;;;;19.15;9.85;;;;;;;;;;5031429;28;20220;-46
2023/10/13 11:54:17;;;;;;;22.17;10.15;;;;;;;;;;5027730;28;20264;-46
2023/10/13 11:56:46;;;;;;;22.25;9.88;;;;;;;;;;5014217;28;20193;-46
2023/10/13 11:59:24;;;;;;;25.23;10.63;;;;;;;;;;5013819;28;20237;-46
2023/10/13 12:07:45;;;;;;;17.85;8.88;;;;;;;;;;5014133;28;20209;-46
2023/10/13 12:10:20;;;;;;;23.50;10.23;;;;;;;;;;5023228;28;20197;-46
2023/10/13 12:12:53;;;;;;;22.25;9.60;;;;;;;;;;5042461;28;20200;-44
2023/10/13 12:15:36;;;;;;;17.60;9.45;;;;;;;;;;5042025;28;20611;-46
2023/10/13 12:18:04;;;;;;;17.00;9.93;;;;;;;;;;5043195;28;20200;-48
2023/10/13 12:20:32;;;;;;;23.20;11.95;;;;;;;;;;5037958;28;20290;-50
2023/10/13 12:23:09;;;;;;;19.40;11.13;;;;;;;;;;5040405;28;20207;-50
2023/10/13 12:28:26;;;;;;;23.38;9.45;;;;;;;;;;5042273;28;20185;-51
2023/10/13 12:30:57;;;;;;;23.85;9.95;;;;;;;;;;5039465;28;20239;-50
2023/10/13 12:33:27;;;;;;;21.45;9.05;;;;;;;;;;5040057;28;20203;-51
2023/10/13 12:36:09;;;;;;;18.80;9.18;;;;;;;;;;5039674;28;20209;-51
2023/10/13 12:49:57;;;;;;;17.25;8.55;;;;;;;;;;5032426;28;20196;-45
2023/10/13 12:52:25;;;;;;;16.02;8.05;;;;;;;;;;5032729;28;20640;-47
2023/10/13 12:57:27;;;;;;;12.35;7.43;;;;;;;;;;5032596;28;20200;-49
2023/10/13 12:59:55;;;;;;;16.23;7.63;;;;;;;;;;5032418;28;20558;-47
2023/10/13 13:02:26;;;;;;;15.60;7.20;;;;;;;;;;5032614;28;20189;-47
2023/10/13 13:05:05;;;;;;;18.77;7.00;;;;;;;;;;5032425;28;20251;-47
2023/10/13 13:07:43;;;;;;;15.13;7.10;;;;;;;;;;5032924;28;20189;-48
2023/10/13 13:10:13;;;;;;;16.63;7.22;;;;;;;;;;5032210;28;20600;-48
2023/10/13 13:12:41;;;;;;;16.45;7.30;;;;;;;;;;5032836;28;20698;-47
2023/10/13 13:15:11;;;;;;;15.48;7.55;;;;;;;;;;5032909;28;20252;-47
2023/10/13 13:17:39;;;;;;;18.58;8.18;;;;;;;;;;5032836;28;20212;-47
2023/10/13 13:20:11;;;;;;;12.23;7.13;;;;;;;;;;5032279;28;20568;-48
2023/10/13 13:22:38;;;;;;;16.17;7.32;;;;;;;;;;5032396;28;20193;-45
2023/10/13 13:25:10;;;;;;;20.02;7.22;;;;;;;;;;5035770;28;20205;-45
2023/10/13 13:27:41;;;;;;;14.65;7.55;;;;;;;;;;5023545;28;20202;-46
2023/10/13 13:30:12;;;;;;;16.40;8.05;;;;;;;;;;5037149;28;20672;-46
2023/10/13 13:32:45;;;;;;;17.38;7.57;;;;;;;;;;5043695;28;20201;-46
2023/10/13 13:35:15;;;;;;;16.50;7.60;;;;;;;;;;5042497;28;20208;-46
2023/10/13 13:37:44;;;;;;;15.25;6.22;;;;;;;;;;5043541;28;20205;-46
2023/10/13 13:40:15;;;;;;;12.60;6.07;;;;;;;;;;5042735;28;20208;-47
2023/10/13 13:42:43;;;;;;;11.07;5.25;;;;;;;;;;5046830;28;20207;-46
2023/10/13 13:45:21;;;;;;;16.50;6.13;;;;;;;;;;5050394;28;20211;-46
2023/10/13 13:47:53;;;;;;;12.60;6.20;;;;;;;;;;5038020;28;20251;-47
2023/10/13 13:50:25;;;;;;;15.23;6.00;;;;;;;;;;5042384;28;20288;-49
2023/10/13 13:52:56;;;;;;;13.05;5.82;;;;;;;;;;5038227;28;20284;-49
2023/10/13 13:55:28;;;;;;;9.25;5.10;;;;;;;;;;5038798;28;20220;-49
2023/10/13 13:57:56;;;;;;;9.63;5.35;;;;;;;;;;5044093;28;20200;-48
2023/10/13 14:00:46;;;;;;;9.82;5.32;;;;;;;;;;5039170;28;20197;-46
2023/10/13 14:03:30;;;;;;;10.45;5.30;;;;;;;;;;5044632;28;20188;-46
2023/10/13 14:05:59;;;;;;;11.45;5.03;;;;;;;;;;5050875;28;20287;-46
2023/10/13 14:08:29;;;;;;;9.80;5.07;;;;;;;;;;5028044;28;20216;-47
2023/10/13 14:13:57;;;;;;;11.15;5.75;;;;;;;;;;5044899;28;20279;-49
2023/10/13 14:16:25;;;;;;;11.20;6.13;;;;;;;;;;5045568;28;20215;-47
2023/10/13 14:18:52;;;;;;;15.60;6.90;;;;;;;;;;5040823;28;20204;-48
2023/10/13 14:21:24;;;;;;;13.15;6.43;;;;;;;;;;5042781;28;20208;-48
2023/10/13 14:23:53;;;;;;;10.60;5.88;;;;;;;;;;5040032;28;20581;-48
2023/10/13 14:26:25;;;;;;;10.63;5.43;;;;;;;;;;5040431;28;20189;-48
2023/10/13 14:29:03;;;;;;;12.45;5.47;;;;;;;;;;5041489;28;20614;-46
2023/10/13 14:31:31;;;;;;;14.00;5.20;;;;;;;;;;5025786;28;20204;-45
2023/10/13 14:33:59;;;;;;;11.25;5.43;;;;;;;;;;5034873;28;20221;-46
2023/10/13 14:36:28;;;;;;;11.82;6.28;;;;;;;;;;5037686;28;20294;-47
2023/10/13 14:38:56;;;;;;;14.60;6.13;;;;;;;;;;5038009;28;20559;-46
2023/10/13 14:41:23;;;;;;;12.60;5.93;;;;;;;;;;5034291;28;20226;-46
2023/10/13 14:43:51;;;;;;;13.07;6.32;;;;;;;;;;5033270;28;20208;-46
2023/10/13 14:46:23;;;;;;;10.80;6.05;;;;;;;;;;5033393;28;20601;-46
2023/10/13 14:48:53;;;;;;;14.10;5.55;;;;;;;;;;5033613;28;20204;-48
2023/10/13 14:51:20;;;;;;;16.73;6.38;;;;;;;;;;5032276;28;20239;-46
2023/10/13 14:53:48;;;;;;;11.07;6.28;;;;;;;;;;5024774;28;20205;-46
2023/10/13 14:56:20;;;;;;;13.93;6.18;;;;;;;;;;5022100;28;20217;-46
2023/10/13 14:58:47;;;;;;;15.57;6.45;;;;;;;;;;5019249;28;20274;-46
2023/10/13 15:01:16;;;;;;;48.30;30.63;;;;;;;;;;5032489;28;20212;-46
2023/10/13 15:03:44;;;;;;;111.07;87.35;;;;;;;;;;5015021;28;20232;-47
2023/10/13 15:06:25;;;;;;;222.45;154.25;;;;;;;;;;5014982;28;20234;-46
2023/10/13 15:08:55;;;;;;;151.73;119.68;;;;;;;;;;5014337;28;20225;-45
2023/10/13 15:11:26;;;;;;;40.75;32.08;;;;;;;;;;5022583;28;20221;-49
2023/10/13 15:13:55;;;;;;;24.33;20.80;;;;;;;;;;5034145;28;20244;-46
2023/10/13 15:16:24;;;;;;;27.25;24.33;;;;;;;;;;5032499;28;20623;-47
2023/10/13 15:18:53;;;;;;;108.88;40.22;;;;;;;;;;5033206;28;20283;-46
2023/10/13 15:21:34;;;;;;;49.70;21.75;;;;;;;;;;5030663;28;20232;-48
2023/10/13 15:24:14;;;;;;;34.03;17.88;;;;;;;;;;5034034;28;20232;-46
2023/10/13 15:26:48;;;;;;;31.85;20.42;;;;;;;;;;5034310;28;20224;-45
2023/10/13 15:29:16;;;;;;;1999.90;807.95;;;;;;;;;;5033600;28;20271;-46
2023/10/13 15:32:04;;;;;;;771.85;327.80;;;;;;;;;;5035275;28;20231;-44
2023/10/13 15:34:32;;;;;;;558.53;188.68;;;;;;;;;;5031115;28;20282;-45
2023/10/13 15:37:00;;;;;;;755.47;286.88;;;;;;;;;;5030057;28;20236;-45
2023/10/13 15:39:28;;;;;;;417.45;95.97;;;;;;;;;;5030073;28;20216;-45
2023/10/13 15:41:59;;;;;;;119.40;34.30;;;;;;;;;;5026562;28;20259;-49
2023/10/13 15:44:29;;;;;;;184.20;51.95;;;;;;;;;;5023076;28;20244;-45
2023/10/13 15:46:59;;;;;;;93.50;32.78;;;;;;;;;;5015233;28;20276;-45
2023/10/13 15:49:33;;;;;;;79.93;26.90;;;;;;;;;;5026512;28;20220;-50
2023/10/13 15:52:03;;;;;;;72.45;25.13;;;;;;;;;;5030962;28;20220;-45
2023/10/13 15:54:31;;;;;;;56.70;23.15;;;;;;;;;;5029991;28;20226;-45
2023/10/13 15:56:58;;;;;;;165.15;59.05;;;;;;;;;;5030563;28;20232;-48
2023/10/13 15:59:25;;;;;;;246.27;94.72;;;;;;;;;;5027126;28;20224;-46
2023/10/13 16:01:57;;;;;;;224.48;90.35;;;;;;;;;;5028596;28;20225;-45
2023/10/13 16:04:25;;;;;;;207.38;53.22;;;;;;;;;;5026756;28;20244;-44
2023/10/13 16:06:53;;;;;;;103.03;31.08;;;;;;;;;;5028465;28;20401;-45
2023/10/13 16:09:23;;;;;;;134.27;36.50;;;;;;;;;;5025238;28;20274;-45
2023/10/13 16:11:53;;;;;;;142.55;39.63;;;;;;;;;;5031690;28;20253;-44
2023/10/13 16:14:21;;;;;;;64.75;22.60;;;;;;;;;;5031659;28;20217;-46
2023/10/13 16:16:52;;;;;;;95.55;30.98;;;;;;;;;;5015721;28;20229;-46
2023/10/13 16:19:21;;;;;;;112.50;48.47;;;;;;;;;;5019858;28;20743;-46
2023/10/13 16:21:51;;;;;;;103.38;34.90;;;;;;;;;;5031408;28;20221;-45
2023/10/13 16:24:18;;;;;;;85.78;26.55;;;;;;;;;;5032090;28;20225;-45
2023/10/13 16:26:52;;;;;;;96.30;31.58;;;;;;;;;;5030133;28;20216;-45
2023/10/13 16:29:20;;;;;;;70.40;24.05;;;;;;;;;;5028964;28;20177;-46
2023/10/13 16:31:48;;;;;;;86.20;30.73;;;;;;;;;;5017858;28;20216;-45
2023/10/13 16:34:16;;;;;;;46.45;18.80;;;;;;;;;;5013057;28;20206;-45
2023/10/13 16:36:48;;;;;;;63.85;26.73;;;;;;;;;;5020411;28;20227;-45
2023/10/13 16:39:15;;;;;;;102.05;28.67;;;;;;;;;;5024265;28;20201;-46
2023/10/13 16:41:46;;;;;;;56.50;19.33;;;;;;;;;;5025212;28;20240;-45
2023/10/13 16:44:15;;;;;;;76.82;24.02;;;;;;;;;;5027080;28;20200;-44
2023/10/13 16:46:43;;;;;;;36.83;14.50;;;;;;;;;;5030694;28;20266;-46
2023/10/13 16:49:11;;;;;;;42.97;16.13;;;;;;;;;;5035596;28;20648;-44
2023/10/13 16:51:40;;;;;;;36.28;13.52;;;;;;;;;;5036815;28;20192;-44
2023/10/13 16:54:07;;;;;;;47.53;18.23;;;;;;;;;;5031933;28;20742;-45
2023/10/13 16:56:38;;;;;;;44.42;16.92;;;;;;;;;;5038150;28;20767;-47
2023/10/13 16:59:06;;;;;;;81.53;28.75;;;;;;;;;;5030624;28;20270;-47
2023/10/13 17:01:35;;;;;;;41.72;15.75;;;;;;;;;;5034739;28;20306;-48
2023/10/13 17:04:04;;;;;;;27.38;11.07;;;;;;;;;;5036034;28;20715;-45
2023/10/13 17:06:33;;;;;;;27.00;11.35;;;;;;;;;;5033300;28;20220;-47
2023/10/13 17:09:03;;;;;;;42.00;16.13;;;;;;;;;;5039665;28;20282;-45
2023/10/13 17:11:31;;;;;;;61.30;24.88;;;;;;;;;;5035240;28;20227;-45
2023/10/13 17:13:58;;;;;;;28.92;12.40;;;;;;;;;;5038819;28;20595;-45
2023/10/13 17:16:26;;;;;;;30.70;12.48;;;;;;;;;;5041475;28;20232;-46
2023/10/13 17:18:54;;;;;;;27.38;11.93;;;;;;;;;;5034603;28;20224;-45
2023/10/13 17:21:31;;;;;;;14.88;6.68;;;;;;;;;;5034838;28;20223;-47
2023/10/13 17:24:01;;;;;;;8.23;5.32;;;;;;;;;;5037498;28;20254;-44
2023/10/13 17:26:30;;;;;;;14.20;5.75;;;;;;;;;;5046728;28;20221;-47
2023/10/13 17:29:03;;;;;;;11.80;6.55;;;;;;;;;;5037100;28;20217;-45
2023/10/13 17:31:31;;;;;;;19.98;6.60;;;;;;;;;;5032974;28;20221;-46
2023/10/13 17:34:00;;;;;;;15.93;6.80;;;;;;;;;;5034374;28;20758;-47
2023/10/13 17:36:29;;;;;;;9.15;5.72;;;;;;;;;;5037686;28;20236;-47
2023/10/13 17:38:56;;;;;;;11.10;5.10;;;;;;;;;;5042262;28;20331;-46
2023/10/13 17:41:24;;;;;;;10.93;5.30;;;;;;;;;;5040169;28;20227;-46
2023/10/13 17:43:52;;;;;;;17.20;5.35;;;;;;;;;;5040605;28;20219;-46
2023/10/13 17:46:21;;;;;;;14.45;5.60;;;;;;;;;;5039378;28;20227;-48
2023/10/13 17:48:48;;;;;;;11.98;6.32;;;;;;;;;;5033821;28;20328;-46
2023/10/13 17:51:16;;;;;;;15.18;6.18;;;;;;;;;;5034016;28;20221;-45
2023/10/13 17:53:45;;;;;;;13.80;6.13;;;;;;;;;;5043506;28;20259;-45
2023/10/13 17:56:15;;;;;;;17.45;5.68;;;;;;;;;;5050281;28;20240;-45
2023/10/13 17:58:43;;;;;;;10.73;5.70;;;;;;;;;;5033730;28;20248;-46
2023/10/13 18:01:19;;;;;;;14.70;6.13;;;;;;;;;;5033414;28;20232;-46
2023/10/13 18:03:48;;;;;;;13.82;5.68;;;;;;;;;;5034099;28;20225;-45
2023/10/13 18:06:17;;;;;;;12.35;5.93;;;;;;;;;;5036353;28;20697;-45
2023/10/13 18:08:44;;;;;;;8.93;5.88;;;;;;;;;;5043082;28;20300;-46
2023/10/13 18:11:12;;;;;;;12.30;6.47;;;;;;;;;;5041807;28;20224;-46
2023/10/13 18:13:41;;;;;;;11.20;6.28;;;;;;;;;;5041208;28;20232;-47
2023/10/13 18:16:14;;;;;;;12.80;6.65;;;;;;;;;;5045076;28;20258;-47
2023/10/13 18:18:44;;;;;;;14.98;7.10;;;;;;;;;;5041666;28;20220;-48
2023/10/13 18:21:12;;;;;;;15.63;5.88;;;;;;;;;;5037489;28;20236;-46
2023/10/13 18:23:42;;;;;;;13.98;6.65;;;;;;;;;;5040449;28;20629;-45
2023/10/13 18:26:15;;;;;;;15.98;6.40;;;;;;;;;;5041043;28;20577;-45
2023/10/13 18:28:43;;;;;;;12.35;6.82;;;;;;;;;;5041580;28;20216;-49
2023/10/13 18:31:11;;;;;;;13.13;6.15;;;;;;;;;;5043775;28;20269;-49
2023/10/13 18:33:40;;;;;;;15.85;7.45;;;;;;;;;;5043713;28;20303;-45
2023/10/13 18:36:24;;;;;;;12.43;6.50;;;;;;;;;;5043627;28;20236;-46
2023/10/13 18:38:51;;;;;;;12.43;6.40;;;;;;;;;;5041680;28;20212;-45